OLBA/BEY METAR and TAF weather

Enter ICAO airport designator
Station Type Date Time Source
OLBA METAR 2021/09/24 03:00 UTC NOAA

OLBA 240300Z 25012KT 8000 SCT041 25/14 Q1008 NOSIG


Station Type Date Time Source
OLBA Decoded METAR 2021/09/24 03:00 UTC NOAA

Beyrouth Aeroport , Lebanon (OLBA) 33-49N 035-29E 19M
Sep 23, 2021 - 11:00 PM EDT / 2021.09.24 0300 UTC
Wind: from the WSW (250 degrees) at 14 MPH (12 KT):0
Visibility: 4 mile(s):0
Sky conditions: partly cloudy
Temperature: 77 F (25 C)
Dew Point: 57 F (14 C)
Relative Humidity: 50%
Pressure (altimeter): 29.77 in. Hg (1008 hPa)
ob: OLBA 240300Z 25012KT 8000 SCT041 25/14 Q1008 NOSIG
cycle: 3

Station Type Date Time Source
OLBA TAF 2021/09/23 18:57 UTC NOAA

TAF TAF OLBA 231600Z 2318/2424 22015KT 8000 SCT030 PROB40
TEMPO 2321/2412 -RA BKN028 PROB30
TEMPO 2322/2406 21015G30KT 6000 -TSRA FEW022CB BKN026
BECMG 2418/2420 17006KT FEW026

Example: see airport list